sensor_id;sensor_type;location;lat;lon;timestamp;P1;durP1;ratioP1;P2;durP2;ratioP2
74689;SDS011;63221;51.860;-2.188;2023-04-26T00:02:24;8.93;;;3.20;;
74689;SDS011;63221;51.860;-2.188;2023-04-26T00:04:54;8.55;;;3.90;;
74689;SDS011;63221;51.860;-2.188;2023-04-26T00:07:23;11.60;;;4.93;;
74689;SDS011;63221;51.860;-2.188;2023-04-26T00:09:49;16.42;;;6.38;;
74689;SDS011;63221;51.860;-2.188;2023-04-26T00:12:16;8.65;;;3.63;;
74689;SDS011;63221;51.860;-2.188;2023-04-26T00:14:41;5.17;;;2.20;;
74689;SDS011;63221;51.860;-2.188;2023-04-26T00:17:07;7.22;;;2.67;;
74689;SDS011;63221;51.860;-2.188;2023-04-26T00:19:32;4.97;;;2.10;;
74689;SDS011;63221;51.860;-2.188;2023-04-26T00:21:58;6.13;;;2.00;;
74689;SDS011;63221;51.860;-2.188;2023-04-26T00:24:23;4.60;;;2.70;;
74689;SDS011;63221;51.860;-2.188;2023-04-26T00:26:52;6.82;;;2.75;;
74689;SDS011;63221;51.860;-2.188;2023-04-26T00:29:18;5.55;;;1.95;;
74689;SDS011;63221;51.860;-2.188;2023-04-26T00:31:43;4.73;;;1.83;;
74689;SDS011;63221;51.860;-2.188;2023-04-26T00:34:08;4.30;;;2.37;;
74689;SDS011;63221;51.860;-2.188;2023-04-26T00:36:34;5.05;;;2.00;;
74689;SDS011;63221;51.860;-2.188;2023-04-26T00:38:59;6.30;;;2.10;;
74689;SDS011;63221;51.860;-2.188;2023-04-26T00:41:25;11.33;;;2.23;;
74689;SDS011;63221;51.860;-2.188;2023-04-26T00:43:50;5.45;;;2.17;;
74689;SDS011;63221;51.860;-2.188;2023-04-26T00:46:16;6.03;;;2.40;;
74689;SDS011;63221;51.860;-2.188;2023-04-26T00:48:41;4.43;;;2.80;;
74689;SDS011;63221;51.860;-2.188;2023-04-26T00:51:07;3.23;;;1.97;;
74689;SDS011;63221;51.860;-2.188;2023-04-26T00:53:32;5.90;;;1.90;;
74689;SDS011;63221;51.860;-2.188;2023-04-26T00:56:00;3.80;;;1.63;;
74689;SDS011;63221;51.860;-2.188;2023-04-26T00:58:27;5.07;;;1.77;;
74689;SDS011;63221;51.860;-2.188;2023-04-26T01:00:52;6.30;;;1.88;;
74689;SDS011;63221;51.860;-2.188;2023-04-26T01:03:18;14.93;;;2.97;;
74689;SDS011;63221;51.860;-2.188;2023-04-26T01:05:44;6.47;;;2.17;;
74689;SDS011;63221;51.860;-2.188;2023-04-26T01:08:09;5.25;;;2.38;;
74689;SDS011;63221;51.860;-2.188;2023-04-26T01:10:35;7.80;;;2.63;;
74689;SDS011;63221;51.860;-2.188;2023-04-26T01:13:01;5.33;;;2.03;;
74689;SDS011;63221;51.860;-2.188;2023-04-26T01:15:27;3.45;;;2.10;;
74689;SDS011;63221;51.860;-2.188;2023-04-26T01:17:54;3.60;;;1.85;;
74689;SDS011;63221;51.860;-2.188;2023-04-26T01:20:23;5.97;;;1.90;;
74689;SDS011;63221;51.860;-2.188;2023-04-26T01:22:50;3.60;;;1.40;;
74689;SDS011;63221;51.860;-2.188;2023-04-26T01:25:16;4.78;;;1.90;;
74689;SDS011;63221;51.860;-2.188;2023-04-26T01:27:41;7.32;;;3.20;;
74689;SDS011;63221;51.860;-2.188;2023-04-26T01:30:07;4.87;;;2.07;;
74689;SDS011;63221;51.860;-2.188;2023-04-26T01:32:33;4.32;;;2.05;;
74689;SDS011;63221;51.860;-2.188;2023-04-26T01:34:59;8.30;;;2.03;;
74689;SDS011;63221;51.860;-2.188;2023-04-26T01:37:25;5.70;;;2.10;;
74689;SDS011;63221;51.860;-2.188;2023-04-26T01:39:50;4.68;;;1.77;;
74689;SDS011;63221;51.860;-2.188;2023-04-26T01:42:16;7.05;;;2.20;;
74689;SDS011;63221;51.860;-2.188;2023-04-26T01:44:41;7.17;;;2.17;;
74689;SDS011;63221;51.860;-2.188;2023-04-26T01:47:07;5.03;;;2.33;;
74689;SDS011;63221;51.860;-2.188;2023-04-26T01:49:32;7.70;;;1.80;;
74689;SDS011;63221;51.860;-2.188;2023-04-26T01:51:58;5.80;;;1.37;;
74689;SDS011;63221;51.860;-2.188;2023-04-26T01:54:23;4.78;;;1.25;;
74689;SDS011;63221;51.860;-2.188;2023-04-26T01:56:49;3.97;;;2.33;;
74689;SDS011;63221;51.860;-2.188;2023-04-26T01:59:14;5.20;;;1.55;;
74689;SDS011;63221;51.860;-2.188;2023-04-26T02:01:40;6.17;;;2.03;;
74689;SDS011;63221;51.860;-2.188;2023-04-26T02:04:07;4.50;;;1.95;;
74689;SDS011;63221;51.860;-2.188;2023-04-26T02:06:32;3.47;;;1.27;;
74689;SDS011;63221;51.860;-2.188;2023-04-26T02:08:58;4.87;;;1.90;;
74689;SDS011;63221;51.860;-2.188;2023-04-26T02:11:23;6.17;;;2.03;;
74689;SDS011;63221;51.860;-2.188;2023-04-26T02:13:50;3.63;;;1.85;;
74689;SDS011;63221;51.860;-2.188;2023-04-26T02:16:16;3.60;;;1.70;;
74689;SDS011;63221;51.860;-2.188;2023-04-26T02:18:42;6.77;;;2.57;;
74689;SDS011;63221;51.860;-2.188;2023-04-26T02:21:09;6.38;;;2.40;;
74689;SDS011;63221;51.860;-2.188;2023-04-26T02:23:35;5.07;;;2.58;;
74689;SDS011;63221;51.860;-2.188;2023-04-26T02:26:01;4.23;;;2.10;;
74689;SDS011;63221;51.860;-2.188;2023-04-26T02:28:27;4.82;;;1.42;;
74689;SDS011;63221;51.860;-2.188;2023-04-26T02:30:52;4.67;;;2.17;;
74689;SDS011;63221;51.860;-2.188;2023-04-26T02:33:18;4.17;;;1.87;;
74689;SDS011;63221;51.860;-2.188;2023-04-26T02:35:43;3.73;;;1.80;;
74689;SDS011;63221;51.860;-2.188;2023-04-26T02:38:08;3.60;;;1.57;;
74689;SDS011;63221;51.860;-2.188;2023-04-26T02:40:34;5.10;;;1.90;;
74689;SDS011;63221;51.860;-2.188;2023-04-26T02:42:59;6.13;;;2.40;;
74689;SDS011;63221;51.860;-2.188;2023-04-26T02:45:25;5.10;;;1.58;;
74689;SDS011;63221;51.860;-2.188;2023-04-26T02:47:51;3.80;;;1.90;;
74689;SDS011;63221;51.860;-2.188;2023-04-26T02:50:16;5.00;;;1.83;;
74689;SDS011;63221;51.860;-2.188;2023-04-26T02:52:42;5.35;;;1.70;;
74689;SDS011;63221;51.860;-2.188;2023-04-26T02:55:07;5.03;;;1.70;;
74689;SDS011;63221;51.860;-2.188;2023-04-26T02:57:33;3.70;;;1.80;;
74689;SDS011;63221;51.860;-2.188;2023-04-26T02:59:58;6.82;;;2.25;;
74689;SDS011;63221;51.860;-2.188;2023-04-26T03:02:24;5.10;;;1.70;;
74689;SDS011;63221;51.860;-2.188;2023-04-26T03:04:50;5.55;;;1.38;;
74689;SDS011;63221;51.860;-2.188;2023-04-26T03:07:15;3.70;;;1.93;;
74689;SDS011;63221;51.860;-2.188;2023-04-26T03:09:41;5.40;;;1.47;;
74689;SDS011;63221;51.860;-2.188;2023-04-26T03:12:07;3.47;;;1.55;;
74689;SDS011;63221;51.860;-2.188;2023-04-26T03:14:32;8.20;;;2.37;;
74689;SDS011;63221;51.860;-2.188;2023-04-26T03:16:58;5.18;;;1.85;;
74689;SDS011;63221;51.860;-2.188;2023-04-26T03:19:24;5.03;;;1.40;;
74689;SDS011;63221;51.860;-2.188;2023-04-26T03:21:51;4.10;;;2.17;;
74689;SDS011;63221;51.860;-2.188;2023-04-26T03:24:16;4.07;;;1.53;;
74689;SDS011;63221;51.860;-2.188;2023-04-26T03:26:41;4.33;;;2.07;;
74689;SDS011;63221;51.860;-2.188;2023-04-26T03:29:07;7.57;;;3.03;;
74689;SDS011;63221;51.860;-2.188;2023-04-26T03:31:32;3.33;;;1.98;;
74689;SDS011;63221;51.860;-2.188;2023-04-26T03:33:57;6.07;;;1.67;;
74689;SDS011;63221;51.860;-2.188;2023-04-26T03:36:23;7.33;;;2.63;;
74689;SDS011;63221;51.860;-2.188;2023-04-26T03:38:48;8.50;;;2.33;;
74689;SDS011;63221;51.860;-2.188;2023-04-26T03:41:14;5.10;;;1.87;;
74689;SDS011;63221;51.860;-2.188;2023-04-26T03:43:39;5.60;;;1.90;;
74689;SDS011;63221;51.860;-2.188;2023-04-26T03:46:05;6.90;;;1.70;;
74689;SDS011;63221;51.860;-2.188;2023-04-26T03:48:30;6.70;;;2.10;;
74689;SDS011;63221;51.860;-2.188;2023-04-26T03:50:55;7.30;;;1.47;;
74689;SDS011;63221;51.860;-2.188;2023-04-26T03:53:21;5.53;;;1.93;;
74689;SDS011;63221;51.860;-2.188;2023-04-26T03:55:46;4.72;;;1.67;;
74689;SDS011;63221;51.860;-2.188;2023-04-26T03:58:12;5.53;;;2.10;;
74689;SDS011;63221;51.860;-2.188;2023-04-26T04:00:38;9.27;;;2.53;;
74689;SDS011;63221;51.860;-2.188;2023-04-26T04:03:05;6.30;;;2.78;;
74689;SDS011;63221;51.860;-2.188;2023-04-26T04:05:31;9.63;;;3.07;;
74689;SDS011;63221;51.860;-2.188;2023-04-26T04:07:57;4.95;;;1.98;;
74689;SDS011;63221;51.860;-2.188;2023-04-26T04:10:22;5.07;;;1.90;;
74689;SDS011;63221;51.860;-2.188;2023-04-26T04:12:48;7.05;;;2.17;;
74689;SDS011;63221;51.860;-2.188;2023-04-26T04:15:15;6.00;;;1.87;;
74689;SDS011;63221;51.860;-2.188;2023-04-26T04:17:40;4.80;;;1.75;;
74689;SDS011;63221;51.860;-2.188;2023-04-26T04:20:06;3.77;;;1.40;;
74689;SDS011;63221;51.860;-2.188;2023-04-26T04:22:32;4.22;;;1.60;;
74689;SDS011;63221;51.860;-2.188;2023-04-26T04:24:58;4.65;;;1.42;;
74689;SDS011;63221;51.860;-2.188;2023-04-26T04:27:24;5.00;;;1.80;;
74689;SDS011;63221;51.860;-2.188;2023-04-26T04:29:50;4.35;;;1.48;;
74689;SDS011;63221;51.860;-2.188;2023-04-26T04:32:17;6.97;;;1.55;;
74689;SDS011;63221;51.860;-2.188;2023-04-26T04:34:43;3.75;;;1.20;;
74689;SDS011;63221;51.860;-2.188;2023-04-26T04:37:09;4.87;;;2.17;;
74689;SDS011;63221;51.860;-2.188;2023-04-26T04:39:36;6.18;;;1.25;;
74689;SDS011;63221;51.860;-2.188;2023-04-26T04:42:01;5.38;;;1.50;;
74689;SDS011;63221;51.860;-2.188;2023-04-26T04:44:27;5.60;;;1.87;;
74689;SDS011;63221;51.860;-2.188;2023-04-26T04:46:52;5.63;;;2.17;;
74689;SDS011;63221;51.860;-2.188;2023-04-26T04:49:18;6.55;;;1.80;;
74689;SDS011;63221;51.860;-2.188;2023-04-26T04:51:43;3.93;;;1.97;;
74689;SDS011;63221;51.860;-2.188;2023-04-26T04:56:38;3.33;;;2.37;;
74689;SDS011;63221;51.860;-2.188;2023-04-26T04:59:04;5.45;;;2.05;;
74689;SDS011;63221;51.860;-2.188;2023-04-26T05:01:30;5.30;;;1.60;;
74689;SDS011;63221;51.860;-2.188;2023-04-26T05:03:57;4.82;;;2.15;;
74689;SDS011;63221;51.860;-2.188;2023-04-26T05:06:22;3.92;;;1.48;;
74689;SDS011;63221;51.860;-2.188;2023-04-26T05:08:48;4.07;;;1.33;;
74689;SDS011;63221;51.860;-2.188;2023-04-26T05:11:14;7.47;;;2.47;;
74689;SDS011;63221;51.860;-2.188;2023-04-26T05:13:39;6.50;;;1.60;;
74689;SDS011;63221;51.860;-2.188;2023-04-26T05:16:05;5.10;;;2.03;;
74689;SDS011;63221;51.860;-2.188;2023-04-26T05:18:30;5.83;;;1.13;;
74689;SDS011;63221;51.860;-2.188;2023-04-26T05:20:56;4.72;;;1.15;;
74689;SDS011;63221;51.860;-2.188;2023-04-26T05:23:21;5.47;;;1.43;;
74689;SDS011;63221;51.860;-2.188;2023-04-26T05:25:47;5.88;;;1.75;;
74689;SDS011;63221;51.860;-2.188;2023-04-26T05:28:12;6.13;;;1.90;;
74689;SDS011;63221;51.860;-2.188;2023-04-26T05:30:38;7.57;;;1.90;;
74689;SDS011;63221;51.860;-2.188;2023-04-26T05:33:03;5.27;;;1.90;;
74689;SDS011;63221;51.860;-2.188;2023-04-26T05:35:29;5.43;;;2.17;;
74689;SDS011;63221;51.860;-2.188;2023-04-26T05:37:54;4.90;;;1.37;;
74689;SDS011;63221;51.860;-2.188;2023-04-26T05:40:20;4.17;;;2.10;;
74689;SDS011;63221;51.860;-2.188;2023-04-26T05:42:45;3.97;;;1.60;;
74689;SDS011;63221;51.860;-2.188;2023-04-26T05:45:11;5.73;;;1.87;;
74689;SDS011;63221;51.860;-2.188;2023-04-26T05:47:36;5.13;;;1.97;;
74689;SDS011;63221;51.860;-2.188;2023-04-26T05:50:02;3.92;;;1.70;;
74689;SDS011;63221;51.860;-2.188;2023-04-26T05:52:27;4.27;;;1.10;;
74689;SDS011;63221;51.860;-2.188;2023-04-26T05:54:53;7.03;;;2.90;;
74689;SDS011;63221;51.860;-2.188;2023-04-26T05:57:18;5.03;;;2.27;;
74689;SDS011;63221;51.860;-2.188;2023-04-26T05:59:44;4.85;;;1.77;;
74689;SDS011;63221;51.860;-2.188;2023-04-26T06:02:09;6.50;;;1.97;;
74689;SDS011;63221;51.860;-2.188;2023-04-26T06:04:35;5.90;;;1.88;;
74689;SDS011;63221;51.860;-2.188;2023-04-26T06:07:01;4.17;;;1.93;;
74689;SDS011;63221;51.860;-2.188;2023-04-26T06:09:26;6.87;;;1.97;;
74689;SDS011;63221;51.860;-2.188;2023-04-26T06:11:51;5.20;;;1.90;;
74689;SDS011;63221;51.860;-2.188;2023-04-26T06:14:17;11.57;;;1.40;;
74689;SDS011;63221;51.860;-2.188;2023-04-26T06:16:43;4.10;;;1.67;;
74689;SDS011;63221;51.860;-2.188;2023-04-26T06:19:08;5.85;;;2.30;;
74689;SDS011;63221;51.860;-2.188;2023-04-26T06:21:34;5.00;;;2.10;;
74689;SDS011;63221;51.860;-2.188;2023-04-26T06:23:59;4.57;;;2.10;;
74689;SDS011;63221;51.860;-2.188;2023-04-26T06:26:24;5.63;;;2.10;;
74689;SDS011;63221;51.860;-2.188;2023-04-26T06:28:50;5.00;;;2.10;;
74689;SDS011;63221;51.860;-2.188;2023-04-26T06:31:15;4.00;;;1.77;;
74689;SDS011;63221;51.860;-2.188;2023-04-26T06:33:40;4.63;;;1.70;;
74689;SDS011;63221;51.860;-2.188;2023-04-26T06:36:09;6.13;;;1.70;;
74689;SDS011;63221;51.860;-2.188;2023-04-26T06:38:36;5.40;;;2.35;;
74689;SDS011;63221;51.860;-2.188;2023-04-26T06:41:01;5.73;;;2.27;;
74689;SDS011;63221;51.860;-2.188;2023-04-26T06:43:26;7.20;;;2.17;;
74689;SDS011;63221;51.860;-2.188;2023-04-26T06:45:52;5.27;;;1.90;;
74689;SDS011;63221;51.860;-2.188;2023-04-26T06:48:18;5.65;;;2.13;;
74689;SDS011;63221;51.860;-2.188;2023-04-26T06:50:43;7.23;;;1.67;;
74689;SDS011;63221;51.860;-2.188;2023-04-26T06:53:08;8.57;;;2.20;;
74689;SDS011;63221;51.860;-2.188;2023-04-26T06:55:34;7.20;;;2.28;;
74689;SDS011;63221;51.860;-2.188;2023-04-26T06:57:59;6.67;;;2.10;;
74689;SDS011;63221;51.860;-2.188;2023-04-26T07:00:25;6.50;;;2.17;;
74689;SDS011;63221;51.860;-2.188;2023-04-26T07:02:50;7.43;;;2.43;;
74689;SDS011;63221;51.860;-2.188;2023-04-26T07:05:16;6.88;;;2.50;;
74689;SDS011;63221;51.860;-2.188;2023-04-26T07:07:41;6.30;;;2.50;;
74689;SDS011;63221;51.860;-2.188;2023-04-26T07:10:07;5.10;;;2.40;;
74689;SDS011;63221;51.860;-2.188;2023-04-26T07:12:33;7.10;;;2.58;;
74689;SDS011;63221;51.860;-2.188;2023-04-26T07:14:58;3.87;;;1.93;;
74689;SDS011;63221;51.860;-2.188;2023-04-26T07:17:25;5.97;;;2.50;;
74689;SDS011;63221;51.860;-2.188;2023-04-26T07:19:51;4.32;;;2.10;;
74689;SDS011;63221;51.860;-2.188;2023-04-26T07:22:16;4.20;;;2.17;;
74689;SDS011;63221;51.860;-2.188;2023-04-26T07:24:42;5.50;;;2.10;;
74689;SDS011;63221;51.860;-2.188;2023-04-26T07:27:07;5.30;;;2.00;;
74689;SDS011;63221;51.860;-2.188;2023-04-26T07:29:32;6.88;;;2.22;;
74689;SDS011;63221;51.860;-2.188;2023-04-26T07:31:58;7.10;;;2.57;;
74689;SDS011;63221;51.860;-2.188;2023-04-26T07:34:23;8.37;;;2.57;;
74689;SDS011;63221;51.860;-2.188;2023-04-26T07:36:49;4.70;;;2.20;;
74689;SDS011;63221;51.860;-2.188;2023-04-26T07:39:14;7.35;;;2.45;;
74689;SDS011;63221;51.860;-2.188;2023-04-26T07:41:40;7.47;;;2.17;;
74689;SDS011;63221;51.860;-2.188;2023-04-26T07:44:06;5.47;;;2.00;;
74689;SDS011;63221;51.860;-2.188;2023-04-26T07:46:32;5.70;;;2.33;;
74689;SDS011;63221;51.860;-2.188;2023-04-26T07:48:58;8.10;;;2.17;;
74689;SDS011;63221;51.860;-2.188;2023-04-26T07:51:23;4.00;;;1.57;;
74689;SDS011;63221;51.860;-2.188;2023-04-26T07:53:49;7.77;;;1.60;;
74689;SDS011;63221;51.860;-2.188;2023-04-26T07:56:14;4.10;;;1.67;;
74689;SDS011;63221;51.860;-2.188;2023-04-26T07:58:40;6.47;;;1.63;;
74689;SDS011;63221;51.860;-2.188;2023-04-26T08:01:05;5.43;;;1.60;;
74689;SDS011;63221;51.860;-2.188;2023-04-26T08:03:31;3.80;;;1.63;;
74689;SDS011;63221;51.860;-2.188;2023-04-26T08:05:57;4.77;;;1.57;;
74689;SDS011;63221;51.860;-2.188;2023-04-26T08:08:25;3.63;;;1.83;;
74689;SDS011;63221;51.860;-2.188;2023-04-26T08:10:52;6.38;;;1.65;;
74689;SDS011;63221;51.860;-2.188;2023-04-26T08:13:17;7.77;;;1.47;;
74689;SDS011;63221;51.860;-2.188;2023-04-26T08:15:43;6.27;;;2.23;;
74689;SDS011;63221;51.860;-2.188;2023-04-26T08:18:08;5.88;;;1.42;;
74689;SDS011;63221;51.860;-2.188;2023-04-26T08:20:33;4.53;;;1.43;;
74689;SDS011;63221;51.860;-2.188;2023-04-26T08:22:59;4.20;;;1.40;;
74689;SDS011;63221;51.860;-2.188;2023-04-26T08:25:24;5.53;;;1.60;;
74689;SDS011;63221;51.860;-2.188;2023-04-26T08:27:50;7.60;;;1.85;;
74689;SDS011;63221;51.860;-2.188;2023-04-26T08:30:16;4.27;;;1.27;;
74689;SDS011;63221;51.860;-2.188;2023-04-26T08:32:42;8.88;;;1.88;;
74689;SDS011;63221;51.860;-2.188;2023-04-26T08:35:09;5.47;;;2.13;;
74689;SDS011;63221;51.860;-2.188;2023-04-26T08:37:35;3.90;;;1.75;;
74689;SDS011;63221;51.860;-2.188;2023-04-26T08:40:01;9.20;;;1.57;;
74689;SDS011;63221;51.860;-2.188;2023-04-26T08:42:33;2.92;;;1.60;;
74689;SDS011;63221;51.860;-2.188;2023-04-26T08:45:04;4.68;;;2.10;;
74689;SDS011;63221;51.860;-2.188;2023-04-26T08:47:43;3.95;;;1.02;;
74689;SDS011;63221;51.860;-2.188;2023-04-26T08:50:10;5.53;;;1.52;;
74689;SDS011;63221;51.860;-2.188;2023-04-26T08:52:36;7.87;;;1.70;;
74689;SDS011;63221;51.860;-2.188;2023-04-26T08:55:03;6.07;;;1.75;;
74689;SDS011;63221;51.860;-2.188;2023-04-26T08:57:30;5.07;;;1.52;;
74689;SDS011;63221;51.860;-2.188;2023-04-26T08:59:57;4.40;;;1.65;;
74689;SDS011;63221;51.860;-2.188;2023-04-26T09:02:22;5.17;;;1.60;;
74689;SDS011;63221;51.860;-2.188;2023-04-26T09:04:48;4.60;;;1.77;;
74689;SDS011;63221;51.860;-2.188;2023-04-26T09:07:21;8.48;;;1.77;;
74689;SDS011;63221;51.860;-2.188;2023-04-26T09:09:51;5.97;;;1.95;;
74689;SDS011;63221;51.860;-2.188;2023-04-26T09:12:18;3.53;;;1.52;;
74689;SDS011;63221;51.860;-2.188;2023-04-26T09:14:45;8.80;;;2.38;;
74689;SDS011;63221;51.860;-2.188;2023-04-26T09:17:30;5.23;;;1.47;;
74689;SDS011;63221;51.860;-2.188;2023-04-26T09:19:57;8.93;;;2.28;;
74689;SDS011;63221;51.860;-2.188;2023-04-26T09:22:26;5.55;;;1.65;;
74689;SDS011;63221;51.860;-2.188;2023-04-26T09:25:02;5.57;;;1.90;;
74689;SDS011;63221;51.860;-2.188;2023-04-26T09:27:32;6.30;;;2.78;;
74689;SDS011;63221;51.860;-2.188;2023-04-26T09:33:12;6.50;;;2.05;;
74689;SDS011;63221;51.860;-2.188;2023-04-26T09:35:27;6.72;;;3.63;;
74689;SDS011;63221;51.860;-2.188;2023-04-26T09:40:31;4.85;;;2.45;;
74689;SDS011;63221;51.860;-2.188;2023-04-26T09:43:09;4.97;;;1.87;;
74689;SDS011;63221;51.860;-2.188;2023-04-26T09:45:51;6.18;;;2.58;;
74689;SDS011;63221;51.860;-2.188;2023-04-26T09:48:32;5.03;;;2.25;;
74689;SDS011;63221;51.860;-2.188;2023-04-26T09:53:27;7.97;;;3.13;;
74689;SDS011;63221;51.860;-2.188;2023-04-26T09:56:10;4.70;;;1.93;;
74689;SDS011;63221;51.860;-2.188;2023-04-26T09:58:39;5.45;;;2.20;;
74689;SDS011;63221;51.860;-2.188;2023-04-26T10:01:27;7.72;;;3.28;;
74689;SDS011;63221;51.860;-2.188;2023-04-26T10:03:56;5.70;;;2.67;;
74689;SDS011;63221;51.860;-2.188;2023-04-26T10:06:22;8.05;;;3.17;;
74689;SDS011;63221;51.860;-2.188;2023-04-26T10:08:48;3.90;;;2.37;;
74689;SDS011;63221;51.860;-2.188;2023-04-26T10:11:14;7.05;;;2.10;;
74689;SDS011;63221;51.860;-2.188;2023-04-26T10:13:40;6.67;;;2.13;;
74689;SDS011;63221;51.860;-2.188;2023-04-26T10:16:06;7.18;;;2.00;;
74689;SDS011;63221;51.860;-2.188;2023-04-26T10:18:33;7.88;;;2.17;;
74689;SDS011;63221;51.860;-2.188;2023-04-26T10:21:01;6.63;;;2.07;;
74689;SDS011;63221;51.860;-2.188;2023-04-26T10:23:30;7.07;;;2.55;;
74689;SDS011;63221;51.860;-2.188;2023-04-26T10:25:57;5.10;;;2.17;;
74689;SDS011;63221;51.860;-2.188;2023-04-26T10:29:08;7.50;;;2.57;;
74689;SDS011;63221;51.860;-2.188;2023-04-26T10:31:08;6.95;;;2.75;;
74689;SDS011;63221;51.860;-2.188;2023-04-26T10:33:34;4.53;;;2.47;;
74689;SDS011;63221;51.860;-2.188;2023-04-26T10:36:07;7.70;;;2.90;;
74689;SDS011;63221;51.860;-2.188;2023-04-26T10:38:37;6.35;;;2.80;;
74689;SDS011;63221;51.860;-2.188;2023-04-26T10:43:55;8.95;;;2.83;;
74689;SDS011;63221;51.860;-2.188;2023-04-26T10:46:44;8.15;;;2.50;;
74689;SDS011;63221;51.860;-2.188;2023-04-26T10:49:13;5.43;;;2.60;;
74689;SDS011;63221;51.860;-2.188;2023-04-26T10:51:39;7.55;;;2.15;;
74689;SDS011;63221;51.860;-2.188;2023-04-26T10:54:05;4.57;;;2.50;;
74689;SDS011;63221;51.860;-2.188;2023-04-26T10:59:07;6.38;;;2.10;;
74689;SDS011;63221;51.860;-2.188;2023-04-26T11:01:33;5.00;;;2.05;;
74689;SDS011;63221;51.860;-2.188;2023-04-26T11:06:24;9.33;;;2.33;;
74689;SDS011;63221;51.860;-2.188;2023-04-26T11:08:50;5.75;;;2.83;;
74689;SDS011;63221;51.860;-2.188;2023-04-26T11:11:17;6.90;;;2.33;;
74689;SDS011;63221;51.860;-2.188;2023-04-26T11:13:45;6.20;;;2.75;;
74689;SDS011;63221;51.860;-2.188;2023-04-26T11:16:11;4.67;;;2.53;;
74689;SDS011;63221;51.860;-2.188;2023-04-26T11:18:38;6.80;;;2.70;;
74689;SDS011;63221;51.860;-2.188;2023-04-26T11:21:06;5.57;;;2.97;;
74689;SDS011;63221;51.860;-2.188;2023-04-26T11:23:32;5.28;;;2.42;;
74689;SDS011;63221;51.860;-2.188;2023-04-26T11:25:58;4.93;;;2.30;;
74689;SDS011;63221;51.860;-2.188;2023-04-26T11:28:24;3.97;;;3.33;;
74689;SDS011;63221;51.860;-2.188;2023-04-26T11:30:50;9.10;;;4.27;;
74689;SDS011;63221;51.860;-2.188;2023-04-26T11:33:16;6.03;;;3.10;;
74689;SDS011;63221;51.860;-2.188;2023-04-26T11:35:43;10.18;;;2.85;;
74689;SDS011;63221;51.860;-2.188;2023-04-26T11:38:11;5.43;;;2.20;;
74689;SDS011;63221;51.860;-2.188;2023-04-26T11:40:36;7.13;;;2.65;;
74689;SDS011;63221;51.860;-2.188;2023-04-26T11:43:05;9.23;;;3.17;;
74689;SDS011;63221;51.860;-2.188;2023-04-26T11:45:34;6.38;;;3.10;;
74689;SDS011;63221;51.860;-2.188;2023-04-26T11:48:05;11.10;;;3.78;;
74689;SDS011;63221;51.860;-2.188;2023-04-26T11:50:33;6.03;;;2.63;;
74689;SDS011;63221;51.860;-2.188;2023-04-26T11:52:59;5.43;;;2.70;;
74689;SDS011;63221;51.860;-2.188;2023-04-26T11:55:29;7.55;;;3.08;;
74689;SDS011;63221;51.860;-2.188;2023-04-26T11:57:58;7.55;;;2.92;;
74689;SDS011;63221;51.860;-2.188;2023-04-26T12:00:24;9.07;;;3.78;;
74689;SDS011;63221;51.860;-2.188;2023-04-26T12:02:50;7.73;;;3.10;;
74689;SDS011;63221;51.860;-2.188;2023-04-26T12:07:50;7.57;;;2.60;;
74689;SDS011;63221;51.860;-2.188;2023-04-26T12:10:24;7.30;;;3.85;;
74689;SDS011;63221;51.860;-2.188;2023-04-26T12:12:51;10.23;;;2.93;;
74689;SDS011;63221;51.860;-2.188;2023-04-26T12:15:21;8.60;;;3.45;;
74689;SDS011;63221;51.860;-2.188;2023-04-26T12:18:20;6.38;;;2.95;;
74689;SDS011;63221;51.860;-2.188;2023-04-26T12:20:40;6.90;;;3.30;;
74689;SDS011;63221;51.860;-2.188;2023-04-26T12:23:07;6.38;;;3.17;;
74689;SDS011;63221;51.860;-2.188;2023-04-26T12:25:35;5.70;;;3.33;;
74689;SDS011;63221;51.860;-2.188;2023-04-26T12:28:02;7.30;;;3.40;;
74689;SDS011;63221;51.860;-2.188;2023-04-26T12:30:28;8.45;;;3.45;;
74689;SDS011;63221;51.860;-2.188;2023-04-26T12:32:54;6.78;;;3.03;;
74689;SDS011;63221;51.860;-2.188;2023-04-26T12:35:21;6.57;;;3.60;;
74689;SDS011;63221;51.860;-2.188;2023-04-26T12:37:47;8.90;;;3.28;;
74689;SDS011;63221;51.860;-2.188;2023-04-26T12:40:13;6.85;;;3.15;;
74689;SDS011;63221;51.860;-2.188;2023-04-26T12:42:40;6.80;;;3.17;;
74689;SDS011;63221;51.860;-2.188;2023-04-26T12:45:05;8.77;;;3.27;;
74689;SDS011;63221;51.860;-2.188;2023-04-26T12:47:32;9.80;;;3.63;;
74689;SDS011;63221;51.860;-2.188;2023-04-26T12:49:57;11.10;;;4.10;;
74689;SDS011;63221;51.860;-2.188;2023-04-26T12:52:25;8.05;;;3.72;;
74689;SDS011;63221;51.860;-2.188;2023-04-26T12:54:51;8.65;;;3.88;;
74689;SDS011;63221;51.860;-2.188;2023-04-26T12:57:17;9.37;;;3.83;;
74689;SDS011;63221;51.860;-2.188;2023-04-26T12:59:43;8.68;;;4.10;;
74689;SDS011;63221;51.860;-2.188;2023-04-26T13:02:09;12.17;;;3.83;;
74689;SDS011;63221;51.860;-2.188;2023-04-26T13:04:34;7.65;;;3.65;;
74689;SDS011;63221;51.860;-2.188;2023-04-26T13:07:00;8.57;;;3.63;;
74689;SDS011;63221;51.860;-2.188;2023-04-26T13:09:25;6.73;;;3.77;;
74689;SDS011;63221;51.860;-2.188;2023-04-26T13:11:51;9.53;;;3.77;;
74689;SDS011;63221;51.860;-2.188;2023-04-26T13:14:16;9.67;;;3.40;;
74689;SDS011;63221;51.860;-2.188;2023-04-26T13:16:41;10.27;;;3.70;;
74689;SDS011;63221;51.860;-2.188;2023-04-26T13:19:08;7.10;;;4.20;;
74689;SDS011;63221;51.860;-2.188;2023-04-26T13:21:34;6.35;;;3.30;;
74689;SDS011;63221;51.860;-2.188;2023-04-26T13:24:00;8.45;;;4.43;;
74689;SDS011;63221;51.860;-2.188;2023-04-26T13:26:26;7.43;;;3.73;;
74689;SDS011;63221;51.860;-2.188;2023-04-26T13:28:51;6.03;;;3.33;;
74689;SDS011;63221;51.860;-2.188;2023-04-26T13:31:16;10.23;;;3.80;;
74689;SDS011;63221;51.860;-2.188;2023-04-26T13:33:43;7.97;;;3.37;;
74689;SDS011;63221;51.860;-2.188;2023-04-26T13:36:08;10.90;;;4.03;;
74689;SDS011;63221;51.860;-2.188;2023-04-26T13:38:34;9.47;;;3.37;;
74689;SDS011;63221;51.860;-2.188;2023-04-26T13:40:59;8.83;;;3.97;;
74689;SDS011;63221;51.860;-2.188;2023-04-26T13:43:26;9.02;;;3.80;;
74689;SDS011;63221;51.860;-2.188;2023-04-26T13:45:51;7.97;;;3.50;;
74689;SDS011;63221;51.860;-2.188;2023-04-26T13:48:17;8.07;;;4.27;;
74689;SDS011;63221;51.860;-2.188;2023-04-26T13:50:42;9.35;;;3.65;;
74689;SDS011;63221;51.860;-2.188;2023-04-26T13:53:07;7.70;;;3.90;;
74689;SDS011;63221;51.860;-2.188;2023-04-26T13:55:33;6.93;;;4.17;;
74689;SDS011;63221;51.860;-2.188;2023-04-26T13:57:58;10.33;;;4.23;;
74689;SDS011;63221;51.860;-2.188;2023-04-26T14:00:24;7.75;;;3.83;;
74689;SDS011;63221;51.860;-2.188;2023-04-26T14:02:50;9.13;;;4.43;;
74689;SDS011;63221;51.860;-2.188;2023-04-26T14:05:15;8.17;;;3.67;;
74689;SDS011;63221;51.860;-2.188;2023-04-26T14:07:41;7.00;;;4.05;;
74689;SDS011;63221;51.860;-2.188;2023-04-26T14:10:07;12.03;;;4.40;;
74689;SDS011;63221;51.860;-2.188;2023-04-26T14:12:33;5.68;;;4.25;;
74689;SDS011;63221;51.860;-2.188;2023-04-26T14:14:59;9.02;;;4.57;;
74689;SDS011;63221;51.860;-2.188;2023-04-26T14:17:27;8.68;;;3.72;;
74689;SDS011;63221;51.860;-2.188;2023-04-26T14:19:53;9.13;;;4.10;;
74689;SDS011;63221;51.860;-2.188;2023-04-26T14:22:19;15.37;;;4.00;;
74689;SDS011;63221;51.860;-2.188;2023-04-26T14:24:45;8.00;;;3.92;;
74689;SDS011;63221;51.860;-2.188;2023-04-26T14:27:10;9.33;;;4.17;;
74689;SDS011;63221;51.860;-2.188;2023-04-26T14:29:36;6.63;;;2.90;;
74689;SDS011;63221;51.860;-2.188;2023-04-26T14:32:01;12.97;;;3.87;;
74689;SDS011;63221;51.860;-2.188;2023-04-26T14:34:27;13.37;;;4.53;;
74689;SDS011;63221;51.860;-2.188;2023-04-26T14:36:52;6.83;;;4.10;;
74689;SDS011;63221;51.860;-2.188;2023-04-26T14:39:17;5.95;;;2.95;;
74689;SDS011;63221;51.860;-2.188;2023-04-26T14:41:44;18.23;;;6.23;;
74689;SDS011;63221;51.860;-2.188;2023-04-26T14:44:10;8.40;;;3.90;;
74689;SDS011;63221;51.860;-2.188;2023-04-26T14:46:35;7.90;;;3.90;;
74689;SDS011;63221;51.860;-2.188;2023-04-26T14:49:01;12.80;;;4.82;;
74689;SDS011;63221;51.860;-2.188;2023-04-26T14:51:26;11.37;;;5.70;;